Time;durP1;ratioP1;P1;durP2;ratioP2;P2;SDS_P1;SDS_P2;PMS_P1;PMS_P2;Temp;Humidity;BMP_temperature;BMP_pressure;BME280_temperature;BME280_humidity;BME280_pressure;Samples;Min_cycle;Max_cycle;Signal;HPM_P1;HPM_P2
2021/04/26 00:00:55;;;;;;;;;;;22.40;25.00;;;;;;491802;240;1121;-72
2021/04/26 00:02:56;;;;;;;;;;;22.30;25.00;;;;;;491932;240;957;-72
2021/04/26 00:04:57;;;;;;;;;;;22.30;25.00;;;;;;491866;240;1067;-72
2021/04/26 00:06:59;;;;;;;;;;;22.20;25.00;;;;;;491863;240;994;-72
2021/04/26 00:09:00;;;;;;;;;;;22.20;25.00;;;;;;491912;240;981;-72
2021/04/26 00:11:01;;;;;;;;;;;22.30;25.00;;;;;;491845;240;935;-72
2021/04/26 00:13:03;;;;;;;;;;;22.20;25.00;;;;;;491957;240;971;-72
2021/04/26 00:15:04;;;;;;;;;;;22.20;25.00;;;;;;491886;240;1135;-72
2021/04/26 00:17:05;;;;;;;;;;;22.30;25.00;;;;;;491846;240;928;-73
2021/04/26 00:19:07;;;;;;;;;;;22.20;25.00;;;;;;491916;240;2133;-73
2021/04/26 00:21:08;;;;;;;;;;;22.20;25.00;;;;;;491847;240;955;-73
2021/04/26 00:23:09;;;;;;;;;;;22.20;25.10;;;;;;491907;240;918;-73
2021/04/26 00:25:10;;;;;;;;;;;22.20;25.10;;;;;;491909;240;960;-72
2021/04/26 00:27:12;;;;;;;;;;;22.20;25.10;;;;;;491881;240;961;-73
2021/04/26 00:29:13;;;;;;;;;;;22.20;25.00;;;;;;491886;240;1155;-72
2021/04/26 00:31:14;;;;;;;;;;;22.20;25.00;;;;;;491880;240;1114;-72
2021/04/26 00:33:16;;;;;;;;;;;22.20;25.00;;;;;;491839;240;982;-73
2021/04/26 00:35:17;;;;;;;;;;;22.20;25.10;;;;;;491849;240;1015;-73
2021/04/26 00:37:18;;;;;;;;;;;22.10;25.10;;;;;;491809;240;953;-72
2021/04/26 00:39:20;;;;;;;;;;;22.10;25.10;;;;;;491873;240;2191;-72
2021/04/26 00:41:21;;;;;;;;;;;22.10;25.20;;;;;;491735;240;1016;-72
2021/04/26 00:43:22;;;;;;;;;;;22.10;25.20;;;;;;491873;240;1025;-72
2021/04/26 00:45:23;;;;;;;;;;;22.10;25.20;;;;;;491836;240;1127;-72
2021/04/26 00:47:25;;;;;;;;;;;22.10;25.20;;;;;;491859;240;1162;-72
2021/04/26 00:49:26;;;;;;;;;;;22.00;25.20;;;;;;491853;240;945;-72
2021/04/26 00:51:27;;;;;;;;;;;22.10;25.20;;;;;;491795;240;1126;-72
2021/04/26 00:53:28;;;;;;;;;;;22.00;25.20;;;;;;491836;240;1061;-72
2021/04/26 00:55:30;;;;;;;;;;;22.00;25.20;;;;;;491860;240;1012;-73
2021/04/26 00:57:31;;;;;;;;;;;22.00;25.20;;;;;;491817;240;1162;-72
2021/04/26 00:59:32;;;;;;;;;;;22.10;25.30;;;;;;491808;240;2195;-72
2021/04/26 01:01:34;;;;;;;;;;;22.00;25.20;;;;;;491795;240;1160;-72
2021/04/26 01:03:35;;;;;;;;;;;22.00;25.20;;;;;;491884;240;942;-72
2021/04/26 01:05:36;;;;;;;;;;;22.00;25.30;;;;;;491871;240;1049;-73
2021/04/26 01:07:38;;;;;;;;;;;22.00;25.30;;;;;;491882;240;1033;-72
2021/04/26 01:09:39;;;;;;;;;;;22.00;25.30;;;;;;491785;240;966;-72
2021/04/26 01:11:40;;;;;;;;;;;22.00;25.30;;;;;;491777;240;1277;-72
2021/04/26 01:13:41;;;;;;;;;;;21.90;25.30;;;;;;491827;240;944;-73
2021/04/26 01:15:43;;;;;;;;;;;21.90;25.30;;;;;;491851;240;1166;-72
2021/04/26 01:17:44;;;;;;;;;;;22.00;25.30;;;;;;491782;240;1093;-72
2021/04/26 01:19:45;;;;;;;;;;;22.00;25.30;;;;;;491891;240;2199;-72
2021/04/26 01:21:47;;;;;;;;;;;21.90;25.30;;;;;;491794;240;945;-72
2021/04/26 01:23:48;;;;;;;;;;;22.00;25.30;;;;;;491897;240;951;-72
2021/04/26 01:25:49;;;;;;;;;;;21.90;25.40;;;;;;491874;240;1004;-72
2021/04/26 01:27:50;;;;;;;;;;;21.90;25.40;;;;;;491918;240;947;-72
2021/04/26 01:29:52;;;;;;;;;;;21.90;25.40;;;;;;491914;240;1168;-73
2021/04/26 01:31:53;;;;;;;;;;;21.90;25.50;;;;;;491883;240;935;-73
2021/04/26 01:33:55;;;;;;;;;;;21.90;25.40;;;;;;492013;240;969;-72
2021/04/26 01:35:56;;;;;;;;;;;21.90;25.40;;;;;;491825;240;959;-72
2021/04/26 01:37:57;;;;;;;;;;;21.90;25.40;;;;;;491888;240;972;-72
2021/04/26 01:39:59;;;;;;;;;;;21.90;25.40;;;;;;491880;240;2137;-72
2021/04/26 01:42:00;;;;;;;;;;;21.90;25.40;;;;;;491799;240;1126;-73
2021/04/26 01:44:01;;;;;;;;;;;21.90;25.40;;;;;;491880;240;991;-73
2021/04/26 01:46:02;;;;;;;;;;;21.90;25.50;;;;;;491763;240;1148;-72
2021/04/26 01:48:04;;;;;;;;;;;21.90;25.50;;;;;;491810;240;985;-72
2021/04/26 01:50:05;;;;;;;;;;;21.90;25.50;;;;;;491813;240;959;-73
2021/04/26 01:52:06;;;;;;;;;;;21.90;25.50;;;;;;491769;240;1116;-73
2021/04/26 01:54:07;;;;;;;;;;;21.90;25.40;;;;;;491849;240;947;-72
2021/04/26 01:56:09;;;;;;;;;;;21.90;25.40;;;;;;491801;240;1321;-72
2021/04/26 01:58:10;;;;;;;;;;;21.80;25.40;;;;;;491855;240;1029;-73
2021/04/26 02:00:11;;;;;;;;;;;21.90;25.50;;;;;;491829;240;2189;-72
2021/04/26 02:02:13;;;;;;;;;;;21.90;25.50;;;;;;491730;240;1219;-72
2021/04/26 02:04:14;;;;;;;;;;;21.80;25.50;;;;;;491892;240;972;-72
2021/04/26 02:06:15;;;;;;;;;;;21.80;25.50;;;;;;491817;240;1291;-72
2021/04/26 02:08:16;;;;;;;;;;;21.80;25.50;;;;;;491886;240;1264;-72
2021/04/26 02:10:18;;;;;;;;;;;21.80;25.60;;;;;;491842;240;1090;-73
2021/04/26 02:12:19;;;;;;;;;;;21.80;25.60;;;;;;491779;240;1111;-72
2021/04/26 02:14:20;;;;;;;;;;;21.80;25.60;;;;;;491928;240;929;-72
2021/04/26 02:16:22;;;;;;;;;;;21.80;25.60;;;;;;491720;240;1233;-72
2021/04/26 02:18:23;;;;;;;;;;;21.70;25.60;;;;;;491773;240;1098;-72
2021/04/26 02:20:24;;;;;;;;;;;21.70;25.60;;;;;;491865;240;2187;-72
2021/04/26 02:22:26;;;;;;;;;;;21.70;25.60;;;;;;491820;240;1073;-72
2021/04/26 02:24:27;;;;;;;;;;;21.70;25.60;;;;;;491870;240;969;-72
2021/04/26 02:26:28;;;;;;;;;;;21.70;25.70;;;;;;491838;240;1226;-72
2021/04/26 02:28:29;;;;;;;;;;;21.70;25.60;;;;;;491799;240;1082;-72
2021/04/26 02:30:31;;;;;;;;;;;21.70;25.60;;;;;;491771;240;1163;-72
2021/04/26 02:32:32;;;;;;;;;;;21.70;25.70;;;;;;491753;240;1200;-72
2021/04/26 02:34:33;;;;;;;;;;;21.60;25.70;;;;;;491906;240;1040;-72
2021/04/26 02:36:35;;;;;;;;;;;21.50;25.70;;;;;;491828;240;1216;-72
2021/04/26 02:38:36;;;;;;;;;;;21.60;25.80;;;;;;491886;240;1017;-73
2021/04/26 02:40:37;;;;;;;;;;;21.60;25.70;;;;;;491815;240;2187;-72
2021/04/26 02:42:38;;;;;;;;;;;21.60;25.80;;;;;;491848;240;1047;-72
2021/04/26 02:44:40;;;;;;;;;;;21.50;25.80;;;;;;491882;240;965;-72
2021/04/26 02:46:41;;;;;;;;;;;21.60;25.80;;;;;;491777;240;1143;-72
2021/04/26 02:48:42;;;;;;;;;;;21.60;25.80;;;;;;491875;240;1012;-72
2021/04/26 02:50:44;;;;;;;;;;;21.60;25.80;;;;;;491849;240;1214;-72
2021/04/26 02:52:45;;;;;;;;;;;21.60;25.80;;;;;;491689;240;1110;-73
2021/04/26 02:54:46;;;;;;;;;;;21.50;25.80;;;;;;491830;240;947;-72
2021/04/26 02:56:47;;;;;;;;;;;21.50;25.80;;;;;;491650;240;1304;-72
2021/04/26 02:58:49;;;;;;;;;;;21.50;25.80;;;;;;491818;240;958;-72
2021/04/26 03:00:50;;;;;;;;;;;21.60;25.80;;;;;;491767;240;2175;-72
2021/04/26 03:02:51;;;;;;;;;;;21.40;25.80;;;;;;491776;240;1256;-72
2021/04/26 03:04:53;;;;;;;;;;;21.50;25.90;;;;;;491799;240;1028;-72
2021/04/26 03:06:54;;;;;;;;;;;21.50;25.90;;;;;;491780;240;1212;-72
2021/04/26 03:08:55;;;;;;;;;;;21.40;25.90;;;;;;492002;240;941;-72
2021/04/26 03:10:56;;;;;;;;;;;21.30;26.00;;;;;;491936;240;924;-72
2021/04/26 03:12:58;;;;;;;;;;;21.30;26.00;;;;;;491889;240;1079;-72
2021/04/26 03:14:59;;;;;;;;;;;21.40;26.00;;;;;;491826;240;978;-72
2021/04/26 03:17:00;;;;;;;;;;;21.40;26.00;;;;;;491886;240;1200;-72
2021/04/26 03:19:02;;;;;;;;;;;21.30;26.00;;;;;;491969;240;943;-72
2021/04/26 03:21:03;;;;;;;;;;;21.30;26.00;;;;;;491854;240;2164;-72
2021/04/26 03:23:04;;;;;;;;;;;21.30;26.00;;;;;;491846;240;961;-72
2021/04/26 03:25:05;;;;;;;;;;;21.30;26.00;;;;;;491943;240;930;-73
2021/04/26 03:27:07;;;;;;;;;;;21.30;26.00;;;;;;491896;240;1174;-73
2021/04/26 03:29:08;;;;;;;;;;;21.30;26.00;;;;;;491878;240;1028;-73
2021/04/26 03:31:09;;;;;;;;;;;21.20;26.00;;;;;;491876;240;1142;-73
2021/04/26 03:33:11;;;;;;;;;;;21.30;26.00;;;;;;491835;240;1028;-72
2021/04/26 03:35:12;;;;;;;;;;;21.30;26.00;;;;;;491803;240;934;-74
2021/04/26 03:37:13;;;;;;;;;;;21.20;26.10;;;;;;491825;240;944;-72
2021/04/26 03:39:14;;;;;;;;;;;21.10;26.20;;;;;;491928;240;920;-72
2021/04/26 03:41:16;;;;;;;;;;;21.20;26.10;;;;;;491864;240;2133;-72
2021/04/26 03:43:17;;;;;;;;;;;21.20;26.10;;;;;;491964;240;972;-72
2021/04/26 03:45:18;;;;;;;;;;;21.10;26.00;;;;;;491831;240;1054;-72
2021/04/26 03:47:20;;;;;;;;;;;21.20;26.10;;;;;;491779;240;1210;-72
2021/04/26 03:49:21;;;;;;;;;;;21.10;26.10;;;;;;492030;240;1203;-72
2021/04/26 03:51:22;;;;;;;;;;;21.20;26.10;;;;;;491824;240;1223;-72
2021/04/26 03:53:24;;;;;;;;;;;21.20;26.10;;;;;;491980;240;1193;-73
2021/04/26 03:55:25;;;;;;;;;;;21.10;26.10;;;;;;491815;240;930;-73
2021/04/26 03:57:26;;;;;;;;;;;21.10;26.00;;;;;;491879;240;1046;-72
2021/04/26 03:59:27;;;;;;;;;;;21.20;26.00;;;;;;491854;240;2195;-72
2021/04/26 04:01:29;;;;;;;;;;;21.10;26.10;;;;;;491869;240;1248;-73
2021/04/26 04:03:30;;;;;;;;;;;21.20;26.10;;;;;;491876;240;1036;-72
2021/04/26 04:05:31;;;;;;;;;;;21.10;26.10;;;;;;491805;240;960;-72
2021/04/26 04:07:33;;;;;;;;;;;21.10;26.10;;;;;;491765;240;1143;-72
2021/04/26 04:09:34;;;;;;;;;;;21.10;26.10;;;;;;491907;240;945;-72
2021/04/26 04:11:35;;;;;;;;;;;21.10;26.10;;;;;;491862;240;1246;-72
2021/04/26 04:13:36;;;;;;;;;;;21.10;26.10;;;;;;491921;240;930;-73
2021/04/26 04:15:38;;;;;;;;;;;21.10;26.10;;;;;;491893;240;1014;-73
2021/04/26 04:17:39;;;;;;;;;;;21.10;26.10;;;;;;491797;240;1176;-72
2021/04/26 04:19:41;;;;;;;;;;;21.00;26.10;;;;;;491847;240;2184;-72
2021/04/26 04:21:42;;;;;;;;;;;21.10;26.10;;;;;;491685;242;1385;-72
2021/04/26 04:23:43;;;;;;;;;;;21.10;26.10;;;;;;491849;240;1012;-72
2021/04/26 04:25:44;;;;;;;;;;;21.00;26.10;;;;;;491776;240;1187;-72
2021/04/26 04:27:46;;;;;;;;;;;21.10;26.10;;;;;;491700;240;1120;-72
2021/04/26 04:29:47;;;;;;;;;;;21.20;26.10;;;;;;491795;240;992;-72
2021/04/26 04:31:48;;;;;;;;;;;21.10;26.10;;;;;;491687;240;1114;-72
2021/04/26 04:33:50;;;;;;;;;;;21.10;26.10;;;;;;491836;240;1026;-72
2021/04/26 04:35:51;;;;;;;;;;;21.10;26.10;;;;;;491726;240;1202;-72
2021/04/26 04:37:52;;;;;;;;;;;21.10;26.10;;;;;;491704;240;1081;-73
2021/04/26 04:39:54;;;;;;;;;;;21.00;26.00;;;;;;491809;240;2121;-72
2021/04/26 04:41:55;;;;;;;;;;;21.00;26.10;;;;;;491727;240;1209;-72
2021/04/26 04:43:56;;;;;;;;;;;21.10;26.10;;;;;;491845;240;1008;-72
2021/04/26 04:45:57;;;;;;;;;;;21.00;26.10;;;;;;491694;238;1271;-72
2021/04/26 04:47:59;;;;;;;;;;;21.00;26.10;;;;;;491661;243;1227;-72
2021/04/26 04:50:00;;;;;;;;;;;21.00;26.10;;;;;;491791;240;944;-72
2021/04/26 04:52:01;;;;;;;;;;;21.10;26.00;;;;;;491671;240;1279;-72
2021/04/26 04:54:03;;;;;;;;;;;21.10;26.00;;;;;;491739;240;1036;-72
2021/04/26 04:56:04;;;;;;;;;;;21.10;26.10;;;;;;491666;240;1112;-72
2021/04/26 04:58:05;;;;;;;;;;;21.10;26.10;;;;;;491683;240;1022;-72
2021/04/26 05:00:07;;;;;;;;;;;21.10;26.10;;;;;;491712;240;2145;-72
2021/04/26 05:02:08;;;;;;;;;;;21.10;26.10;;;;;;491718;240;1212;-72
2021/04/26 05:04:10;;;;;;;;;;;20.90;26.10;;;;;;491765;240;1039;-72
2021/04/26 05:06:10;;;;;;;;;;;20.80;26.30;;;;;;491698;240;1386;-72
2021/04/26 05:08:12;;;;;;;;;;;20.70;26.40;;;;;;491744;240;1073;-72
2021/04/26 05:10:13;;;;;;;;;;;20.60;26.50;;;;;;491692;240;960;-72
2021/04/26 05:12:15;;;;;;;;;;;20.60;26.60;;;;;;491643;240;995;-72
2021/04/26 05:14:16;;;;;;;;;;;20.60;26.50;;;;;;491678;240;1277;-72
2021/04/26 05:16:17;;;;;;;;;;;20.50;26.60;;;;;;491602;240;1019;-72
2021/04/26 05:18:18;;;;;;;;;;;20.50;26.60;;;;;;491645;240;1193;-72
2021/04/26 05:20:19;;;;;;;;;;;20.50;26.70;;;;;;491566;240;2187;-72
2021/04/26 05:22:21;;;;;;;;;;;20.50;26.70;;;;;;491565;240;968;-72
2021/04/26 05:24:22;;;;;;;;;;;20.50;26.70;;;;;;491658;240;963;-72
2021/04/26 05:26:24;;;;;;;;;;;20.50;26.70;;;;;;491543;240;1005;-72
2021/04/26 05:28:25;;;;;;;;;;;20.40;26.70;;;;;;491661;240;1041;-73
2021/04/26 05:30:28;;;;;;;;;;;20.50;26.80;;;;;;491605;240;1016;-73
2021/04/26 05:32:28;;;;;;;;;;;20.50;26.80;;;;;;491543;241;1357;-73
2021/04/26 05:34:29;;;;;;;;;;;20.50;26.80;;;;;;491528;240;936;-73
2021/04/26 05:36:30;;;;;;;;;;;20.50;26.80;;;;;;491591;240;976;-72
2021/04/26 05:38:31;;;;;;;;;;;20.50;26.80;;;;;;491558;240;1062;-73
2021/04/26 05:40:33;;;;;;;;;;;20.50;26.80;;;;;;491584;240;2195;-73
2021/04/26 05:42:34;;;;;;;;;;;20.50;26.80;;;;;;491557;240;1099;-73
2021/04/26 05:44:35;;;;;;;;;;;20.50;26.80;;;;;;491500;240;997;-73
2021/04/26 05:46:36;;;;;;;;;;;20.50;26.80;;;;;;491372;240;1168;-73
2021/04/26 05:48:38;;;;;;;;;;;20.50;26.80;;;;;;491474;240;1228;-73
2021/04/26 05:50:39;;;;;;;;;;;20.50;26.90;;;;;;491466;242;962;-73
2021/04/26 05:52:41;;;;;;;;;;;20.50;26.90;;;;;;491508;240;1074;-72
2021/04/26 05:54:42;;;;;;;;;;;20.50;26.90;;;;;;491542;240;977;-72
2021/04/26 05:56:43;;;;;;;;;;;20.60;26.90;;;;;;491519;240;1222;-72
2021/04/26 05:58:44;;;;;;;;;;;20.60;26.90;;;;;;491551;240;961;-72
2021/04/26 06:00:46;;;;;;;;;;;20.60;26.90;;;;;;491450;241;2172;-72
2021/04/26 06:02:47;;;;;;;;;;;20.60;26.90;;;;;;491365;240;1177;-73
2021/04/26 06:04:48;;;;;;;;;;;20.60;26.90;;;;;;491363;240;1094;-73
2021/04/26 06:06:49;;;;;;;;;;;20.60;26.80;;;;;;491427;240;1099;-72
2021/04/26 06:08:51;;;;;;;;;;;20.60;26.80;;;;;;491436;240;1030;-73
2021/04/26 06:10:52;;;;;;;;;;;20.70;26.80;;;;;;491403;240;1206;-73
2021/04/26 06:12:53;;;;;;;;;;;20.70;26.80;;;;;;491398;240;1128;-73
2021/04/26 06:14:55;;;;;;;;;;;20.80;26.70;;;;;;491314;240;1037;-73
2021/04/26 06:16:56;;;;;;;;;;;21.00;26.70;;;;;;491268;240;1170;-73
2021/04/26 06:18:57;;;;;;;;;;;21.10;26.50;;;;;;491277;240;1168;-73
2021/04/26 06:20:58;;;;;;;;;;;21.20;26.40;;;;;;491269;240;2189;-73
2021/04/26 06:23:00;;;;;;;;;;;21.30;26.40;;;;;;491324;240;1025;-73
2021/04/26 06:25:01;;;;;;;;;;;21.40;26.30;;;;;;491434;240;1003;-73
2021/04/26 06:27:02;;;;;;;;;;;21.40;26.20;;;;;;491441;240;1089;-73
2021/04/26 06:29:04;;;;;;;;;;;21.50;26.20;;;;;;491135;241;1128;-73
2021/04/26 06:31:05;;;;;;;;;;;21.60;26.10;;;;;;491413;240;1054;-73
2021/04/26 06:33:08;;;;;;;;;;;21.60;26.10;;;;;;491430;239;1349;-72
2021/04/26 06:35:07;;;;;;;;;;;21.70;26.00;;;;;;491283;241;1357;-72
2021/04/26 06:37:09;;;;;;;;;;;21.80;26.00;;;;;;491362;240;1079;-73
2021/04/26 06:39:10;;;;;;;;;;;21.80;25.90;;;;;;491295;240;969;-73
2021/04/26 06:41:11;;;;;;;;;;;21.90;25.90;;;;;;491204;240;2188;-73
2021/04/26 06:43:13;;;;;;;;;;;21.90;25.90;;;;;;491294;240;1049;-73
2021/04/26 06:45:20;;;;;;;;;;;21.90;25.80;;;;;;491225;240;994;-73
2021/04/26 06:47:15;;;;;;;;;;;21.90;25.80;;;;;;491243;241;1961;-73
2021/04/26 06:49:20;;;;;;;;;;;21.90;25.70;;;;;;491331;240;1281;-73
2021/04/26 06:51:20;;;;;;;;;;;22.00;25.70;;;;;;491266;241;1323;-73
2021/04/26 06:53:21;;;;;;;;;;;22.00;25.70;;;;;;491318;240;1114;-73
2021/04/26 06:55:22;;;;;;;;;;;22.10;25.70;;;;;;485269;237;5507;-73
2021/04/26 06:57:24;;;;;;;;;;;22.10;25.70;;;;;;477235;244;5486;-73
2021/04/26 06:59:25;;;;;;;;;;;22.10;25.60;;;;;;466681;255;1074;-73
2021/04/26 07:01:26;;;;;;;;;;;22.20;25.60;;;;;;458573;256;2201;-73
2021/04/26 07:03:27;;;;;;;;;;;22.00;25.60;;;;;;462650;257;1067;-73
2021/04/26 07:05:29;;;;;;;;;;;22.10;25.70;;;;;;466544;255;1010;-73
2021/04/26 07:07:30;;;;;;;;;;;22.00;25.70;;;;;;458455;256;1137;-73
2021/04/26 07:09:31;;;;;;;;;;;21.90;25.70;;;;;;462585;257;1033;-73
2021/04/26 07:11:33;;;;;;;;;;;21.90;25.80;;;;;;466595;252;1218;-72
2021/04/26 07:13:34;;;;;;;;;;;21.80;25.90;;;;;;458596;259;988;-72
2021/04/26 07:15:35;;;;;;;;;;;21.70;26.00;;;;;;462613;257;1042;-72
2021/04/26 07:17:37;;;;;;;;;;;21.60;26.10;;;;;;466566;255;1233;-73
2021/04/26 07:19:38;;;;;;;;;;;21.50;26.20;;;;;;458503;259;1217;-73
2021/04/26 07:21:39;;;;;;;;;;;21.50;26.30;;;;;;462458;257;2195;-73
2021/04/26 07:23:40;;;;;;;;;;;21.40;26.30;;;;;;466621;255;1058;-73
2021/04/26 07:25:42;;;;;;;;;;;21.40;26.40;;;;;;458458;259;1235;-73
2021/04/26 07:27:43;;;;;;;;;;;21.40;26.40;;;;;;462498;257;1072;-73
2021/04/26 07:29:44;;;;;;;;;;;21.40;26.40;;;;;;466514;255;1094;-73
2021/04/26 07:31:45;;;;;;;;;;;21.50;26.30;;;;;;458535;259;1217;-73
2021/04/26 07:33:47;;;;;;;;;;;21.40;26.30;;;;;;462458;257;1176;-73
2021/04/26 07:35:48;;;;;;;;;;;21.50;26.40;;;;;;466695;251;1265;-73
2021/04/26 07:37:49;;;;;;;;;;;21.50;26.30;;;;;;458570;259;1088;-73
2021/04/26 07:39:50;;;;;;;;;;;21.60;26.30;;;;;;462498;257;1081;-73
2021/04/26 07:41:52;;;;;;;;;;;21.60;26.30;;;;;;466591;255;2201;-73
2021/04/26 07:43:53;;;;;;;;;;;21.60;26.30;;;;;;462839;257;1024;-73
2021/04/26 07:45:54;;;;;;;;;;;21.60;26.30;;;;;;458452;259;1119;-73
2021/04/26 07:47:57;;;;;;;;;;;21.60;26.30;;;;;;462525;257;1091;-73
2021/04/26 07:49:57;;;;;;;;;;;21.60;26.30;;;;;;466607;254;1422;-73
2021/04/26 07:51:58;;;;;;;;;;;21.60;26.30;;;;;;459500;251;1236;-73
2021/04/26 07:53:59;;;;;;;;;;;21.70;26.40;;;;;;462600;257;1034;-73
2021/04/26 07:56:01;;;;;;;;;;;21.60;26.30;;;;;;466538;252;1221;-73
2021/04/26 07:58:02;;;;;;;;;;;21.60;26.30;;;;;;458484;256;1080;-73
2021/04/26 08:00:03;;;;;;;;;;;21.70;26.30;;;;;;462427;257;1037;-73
2021/04/26 08:02:05;;;;;;;;;;;21.70;26.30;;;;;;466593;251;2196;-73
2021/04/26 08:04:06;;;;;;;;;;;21.70;26.30;;;;;;458506;259;1147;-73
2021/04/26 08:06:07;;;;;;;;;;;21.70;26.30;;;;;;462621;250;1108;-73
2021/04/26 08:08:09;;;;;;;;;;;21.70;26.40;;;;;;466677;255;1064;-73
2021/04/26 08:10:10;;;;;;;;;;;21.80;26.30;;;;;;458554;258;1106;-73
2021/04/26 08:12:11;;;;;;;;;;;21.70;26.30;;;;;;462649;257;1029;-73
2021/04/26 08:14:13;;;;;;;;;;;21.70;26.40;;;;;;466583;255;1212;-73
2021/04/26 08:16:14;;;;;;;;;;;21.70;26.30;;;;;;458485;259;1235;-73
2021/04/26 08:18:15;;;;;;;;;;;21.80;26.30;;;;;;462641;257;1123;-73
2021/04/26 08:20:16;;;;;;;;;;;21.80;26.30;;;;;;466053;255;1117;-73
2021/04/26 08:22:18;;;;;;;;;;;21.80;26.30;;;;;;458570;258;2213;-73
2021/04/26 08:24:19;;;;;;;;;;;21.80;26.30;;;;;;462731;257;1066;-73
2021/04/26 08:26:20;;;;;;;;;;;21.80;26.30;;;;;;466690;255;1154;-73
2021/04/26 08:28:21;;;;;;;;;;;21.80;26.30;;;;;;458692;258;1144;-73
2021/04/26 08:30:23;;;;;;;;;;;21.80;26.30;;;;;;462332;257;1030;-73
2021/04/26 08:32:24;;;;;;;;;;;21.80;26.30;;;;;;466430;255;1111;-73
2021/04/26 08:34:26;;;;;;;;;;;21.80;26.30;;;;;;462590;257;1165;-73
2021/04/26 08:36:27;;;;;;;;;;;21.90;26.20;;;;;;466314;255;1069;-73
2021/04/26 08:38:28;;;;;;;;;;;21.80;26.30;;;;;;458429;258;1060;-73
2021/04/26 08:40:30;;;;;;;;;;;21.70;26.30;;;;;;461927;257;1220;-73
2021/04/26 08:42:31;;;;;;;;;;;21.70;26.30;;;;;;466609;255;2204;-73
2021/04/26 08:44:32;;;;;;;;;;;21.80;26.30;;;;;;458845;258;1258;-73
2021/04/26 08:46:34;;;;;;;;;;;21.70;26.40;;;;;;462753;257;1111;-73
2021/04/26 08:48:35;;;;;;;;;;;21.70;26.40;;;;;;466762;255;1125;-73
2021/04/26 08:50:36;;;;;;;;;;;21.60;26.40;;;;;;458402;258;1175;-74
2021/04/26 08:52:37;;;;;;;;;;;21.70;26.50;;;;;;462784;256;1101;-73
2021/04/26 08:54:39;;;;;;;;;;;21.70;26.50;;;;;;462320;258;1111;-73
2021/04/26 08:56:40;;;;;;;;;;;21.70;26.40;;;;;;466515;255;1202;-73
2021/04/26 08:58:41;;;;;;;;;;;21.70;26.40;;;;;;462621;257;1068;-73
2021/04/26 09:00:42;;;;;;;;;;;21.70;26.50;;;;;;466666;255;1093;-73
2021/04/26 09:02:44;;;;;;;;;;;21.60;26.50;;;;;;462625;253;2210;-73
2021/04/26 09:04:45;;;;;;;;;;;21.70;26.50;;;;;;458640;257;1145;-73
2021/04/26 09:06:46;;;;;;;;;;;21.70;26.50;;;;;;462979;255;1213;-73
2021/04/26 09:08:48;;;;;;;;;;;21.70;26.50;;;;;;458605;259;1072;-73
2021/04/26 09:10:50;;;;;;;;;;;21.70;26.50;;;;;;462762;254;1127;-73
2021/04/26 09:12:50;;;;;;;;;;;21.70;26.50;;;;;;466631;251;1348;-73
2021/04/26 09:14:52;;;;;;;;;;;21.70;26.50;;;;;;458754;259;985;-73
2021/04/26 09:16:53;;;;;;;;;;;21.80;26.50;;;;;;462796;254;1282;-73
2021/04/26 09:18:54;;;;;;;;;;;21.80;26.50;;;;;;466719;255;998;-73
2021/04/26 09:20:56;;;;;;;;;;;21.80;26.50;;;;;;458473;259;1245;-73
2021/04/26 09:22:57;;;;;;;;;;;21.80;26.40;;;;;;462441;257;2204;-73
2021/04/26 09:24:58;;;;;;;;;;;21.80;26.50;;;;;;466541;255;1070;-73
2021/04/26 09:27:00;;;;;;;;;;;21.70;26.50;;;;;;458546;259;1179;-73
2021/04/26 09:29:01;;;;;;;;;;;21.70;26.60;;;;;;462564;257;1054;-73
2021/04/26 09:31:02;;;;;;;;;;;21.80;26.60;;;;;;466660;255;1231;-73
2021/04/26 09:33:03;;;;;;;;;;;21.70;26.60;;;;;;458494;258;1107;-73
2021/04/26 09:35:05;;;;;;;;;;;21.70;26.60;;;;;;462713;257;1207;-73
2021/04/26 09:37:06;;;;;;;;;;;21.70;26.60;;;;;;466740;255;1004;-73
2021/04/26 09:39:09;;;;;;;;;;;21.80;26.50;;;;;;458729;258;987;-73
2021/04/26 09:41:09;;;;;;;;;;;21.80;26.60;;;;;;462755;257;1396;-73
2021/04/26 09:43:10;;;;;;;;;;;21.80;26.60;;;;;;466818;255;2209;-73
2021/04/26 09:45:11;;;;;;;;;;;21.80;26.60;;;;;;458593;258;1046;-74
2021/04/26 09:47:12;;;;;;;;;;;21.80;26.60;;;;;;462670;257;1081;-74
2021/04/26 09:49:14;;;;;;;;;;;21.80;26.60;;;;;;466453;255;1044;-74
2021/04/26 09:51:17;;;;;;;;;;;21.70;26.70;;;;;;458482;258;1209;-73
2021/04/26 09:53:19;;;;;;;;;;;21.70;26.70;;;;;;463110;257;1144;-73
2021/04/26 09:55:20;;;;;;;;;;;21.80;26.70;;;;;;467231;255;1122;-73
2021/04/26 09:57:21;;;;;;;;;;;21.80;26.70;;;;;;463468;257;1119;-73
2021/04/26 09:59:24;;;;;;;;;;;21.80;26.70;;;;;;458952;259;1022;-73
2021/04/26 10:01:24;;;;;;;;;;;21.80;26.70;;;;;;462702;257;1512;-74
2021/04/26 10:03:25;;;;;;;;;;;21.80;26.70;;;;;;467249;255;2181;-74
2021/04/26 10:05:26;;;;;;;;;;;21.80;26.60;;;;;;459233;258;1281;-73
2021/04/26 10:07:27;;;;;;;;;;;21.80;26.60;;;;;;463312;257;1092;-73
2021/04/26 10:09:29;;;;;;;;;;;21.80;26.60;;;;;;467045;255;1090;-73
2021/04/26 10:11:30;;;;;;;;;;;21.80;26.50;;;;;;462231;250;1122;-73
2021/04/26 10:13:32;;;;;;;;;;;21.80;26.50;;;;;;467160;255;1046;-73
2021/04/26 10:15:33;;;;;;;;;;;21.80;26.50;;;;;;463391;254;1250;-73
2021/04/26 10:17:35;;;;;;;;;;;21.80;26.50;;;;;;459008;259;1091;-73
2021/04/26 10:19:35;;;;;;;;;;;21.80;26.50;;;;;;463119;257;1450;-73
2021/04/26 10:21:36;;;;;;;;;;;21.80;26.50;;;;;;467336;255;2189;-73
2021/04/26 10:23:38;;;;;;;;;;;21.80;26.50;;;;;;463315;255;1040;-73
2021/04/26 10:25:39;;;;;;;;;;;21.80;26.50;;;;;;459266;259;1334;-73
2021/04/26 10:27:40;;;;;;;;;;;21.90;26.50;;;;;;463084;254;1178;-73
2021/04/26 10:29:42;;;;;;;;;;;21.80;26.50;;;;;;467251;255;1159;-73
2021/04/26 10:31:43;;;;;;;;;;;21.80;26.40;;;;;;463606;253;1423;-73
2021/04/26 10:33:44;;;;;;;;;;;21.90;26.40;;;;;;459298;257;1039;-73
2021/04/26 10:35:46;;;;;;;;;;;21.80;26.40;;;;;;463142;257;1199;-73
2021/04/26 10:37:48;;;;;;;;;;;21.80;26.50;;;;;;467032;255;1060;-72
2021/04/26 10:39:49;;;;;;;;;;;21.90;26.40;;;;;;459172;259;1075;-73
2021/04/26 10:41:52;;;;;;;;;;;21.80;26.40;;;;;;463304;257;2207;-73
2021/04/26 10:43:53;;;;;;;;;;;21.80;26.30;;;;;;467038;252;1527;-73
2021/04/26 10:45:54;;;;;;;;;;;21.80;26.30;;;;;;459126;258;1083;-73
2021/04/26 10:47:55;;;;;;;;;;;21.80;26.30;;;;;;463095;257;1130;-73
2021/04/26 10:49:56;;;;;;;;;;;21.80;26.20;;;;;;466520;255;1290;-73
2021/04/26 10:51:57;;;;;;;;;;;21.80;26.20;;;;;;458529;257;1222;-73
2021/04/26 10:53:59;;;;;;;;;;;21.80;26.10;;;;;;463036;257;1168;-73
2021/04/26 10:56:00;;;;;;;;;;;21.80;26.20;;;;;;466709;255;1167;-73
2021/04/26 10:58:02;;;;;;;;;;;21.80;26.10;;;;;;458689;259;1185;-74
2021/04/26 11:00:02;;;;;;;;;;;21.80;26.10;;;;;;462864;257;1354;-74
2021/04/26 11:02:04;;;;;;;;;;;21.80;26.10;;;;;;466794;255;2200;-74
2021/04/26 11:04:05;;;;;;;;;;;21.80;26.10;;;;;;458850;258;1012;-74
2021/04/26 11:06:06;;;;;;;;;;;21.90;26.10;;;;;;462730;257;1355;-73
2021/04/26 11:08:11;;;;;;;;;;;21.80;26.00;;;;;;467200;255;1002;-73
2021/04/26 11:10:09;;;;;;;;;;;21.90;26.10;;;;;;459557;251;1422;-73
2021/04/26 11:12:10;;;;;;;;;;;21.80;26.00;;;;;;463179;257;1072;-73
2021/04/26 11:14:11;;;;;;;;;;;21.90;26.00;;;;;;467262;255;1045;-73
2021/04/26 11:16:13;;;;;;;;;;;21.80;26.10;;;;;;459391;259;1023;-73
2021/04/26 11:18:15;;;;;;;;;;;21.90;26.10;;;;;;463455;257;1019;-73
2021/04/26 11:20:16;;;;;;;;;;;21.90;26.10;;;;;;467467;251;1380;-73
2021/04/26 11:22:17;;;;;;;;;;;21.90;26.00;;;;;;459352;258;2221;-73
2021/04/26 11:24:19;;;;;;;;;;;21.90;25.90;;;;;;463366;257;1011;-73
2021/04/26 11:26:20;;;;;;;;;;;21.90;25.90;;;;;;467435;255;1249;-73
2021/04/26 11:28:21;;;;;;;;;;;21.90;25.90;;;;;;463410;257;1053;-73
2021/04/26 11:30:22;;;;;;;;;;;21.80;25.90;;;;;;467313;255;1094;-73
2021/04/26 11:32:24;;;;;;;;;;;21.80;25.80;;;;;;463558;257;1071;-73
2021/04/26 11:34:25;;;;;;;;;;;21.80;25.70;;;;;;463458;257;1032;-73
2021/04/26 11:36:26;;;;;;;;;;;21.80;25.70;;;;;;462821;258;1224;-73
2021/04/26 11:38:27;;;;;;;;;;;21.90;25.80;;;;;;467145;255;1138;-73
2021/04/26 11:40:29;;;;;;;;;;;21.90;25.70;;;;;;462985;257;1103;-73
2021/04/26 11:42:30;;;;;;;;;;;21.90;25.80;;;;;;467209;255;2261;-73
2021/04/26 11:44:31;;;;;;;;;;;21.90;25.80;;;;;;459261;259;1094;-73
2021/04/26 11:46:34;;;;;;;;;;;21.80;25.80;;;;;;463333;250;1181;-73
2021/04/26 11:48:35;;;;;;;;;;;21.90;25.70;;;;;;467282;250;1457;-73
2021/04/26 11:50:35;;;;;;;;;;;21.90;25.80;;;;;;459180;259;1424;-73
2021/04/26 11:52:36;;;;;;;;;;;21.90;25.80;;;;;;463218;257;1225;-73
2021/04/26 11:54:38;;;;;;;;;;;21.90;25.80;;;;;;467329;255;1015;-73
2021/04/26 11:56:39;;;;;;;;;;;21.80;25.70;;;;;;459101;259;1773;-73
2021/04/26 11:58:40;;;;;;;;;;;21.90;25.70;;;;;;463185;257;1092;-73